sensor_id;sensor_type;location;lat;lon;timestamp;P1;durP1;ratioP1;P2;durP2;ratioP2
24799;SDS011;12897;50.812;4.430;2023-07-31T00:28:41;28.15;;;6.10;;
24799;SDS011;12897;50.812;4.430;2023-07-31T00:31:09;20.25;;;5.92;;
24799;SDS011;12897;50.812;4.430;2023-07-31T00:33:37;22.32;;;5.92;;
24799;SDS011;12897;50.812;4.430;2023-07-31T00:49:49;22.02;;;6.00;;
24799;SDS011;12897;50.812;4.430;2023-07-31T00:52:16;16.55;;;5.72;;
24799;SDS011;12897;50.812;4.430;2023-07-31T00:54:45;16.45;;;5.62;;
24799;SDS011;12897;50.812;4.430;2023-07-31T00:57:12;19.98;;;5.70;;
24799;SDS011;12897;50.812;4.430;2023-07-31T00:59:40;21.95;;;6.20;;
24799;SDS011;12897;50.812;4.430;2023-07-31T01:02:07;22.48;;;5.75;;
24799;SDS011;12897;50.812;4.430;2023-07-31T01:04:35;15.65;;;5.17;;
24799;SDS011;12897;50.812;4.430;2023-07-31T01:07:09;18.55;;;6.28;;
24799;SDS011;12897;50.812;4.430;2023-07-31T01:12:21;19.55;;;5.87;;
24799;SDS011;12897;50.812;4.430;2023-07-31T01:14:51;17.77;;;6.60;;
24799;SDS011;12897;50.812;4.430;2023-07-31T01:17:20;17.57;;;6.05;;
24799;SDS011;12897;50.812;4.430;2023-07-31T01:19:47;18.90;;;6.30;;
24799;SDS011;12897;50.812;4.430;2023-07-31T01:22:23;24.00;;;5.67;;
24799;SDS011;12897;50.812;4.430;2023-07-31T01:27:53;22.13;;;5.55;;
24799;SDS011;12897;50.812;4.430;2023-07-31T01:30:20;25.15;;;6.35;;
24799;SDS011;12897;50.812;4.430;2023-07-31T01:32:49;20.27;;;6.10;;
24799;SDS011;12897;50.812;4.430;2023-07-31T01:35:19;14.98;;;5.33;;
24799;SDS011;12897;50.812;4.430;2023-07-31T01:37:47;21.30;;;6.78;;
24799;SDS011;12897;50.812;4.430;2023-07-31T01:40:14;20.23;;;6.47;;
24799;SDS011;12897;50.812;4.430;2023-07-31T01:42:42;15.03;;;5.87;;
24799;SDS011;12897;50.812;4.430;2023-07-31T01:45:09;25.72;;;6.22;;
24799;SDS011;12897;50.812;4.430;2023-07-31T01:47:37;21.27;;;6.40;;
24799;SDS011;12897;50.812;4.430;2023-07-31T01:50:05;18.65;;;6.12;;
24799;SDS011;12897;50.812;4.430;2023-07-31T01:52:33;16.23;;;6.42;;
24799;SDS011;12897;50.812;4.430;2023-07-31T01:55:00;17.35;;;6.00;;
24799;SDS011;12897;50.812;4.430;2023-07-31T01:57:28;19.17;;;6.12;;
24799;SDS011;12897;50.812;4.430;2023-07-31T01:59:55;21.50;;;6.87;;
24799;SDS011;12897;50.812;4.430;2023-07-31T02:02:23;17.45;;;6.28;;
24799;SDS011;12897;50.812;4.430;2023-07-31T02:04:50;17.10;;;6.33;;
24799;SDS011;12897;50.812;4.430;2023-07-31T02:07:18;18.23;;;6.55;;
24799;SDS011;12897;50.812;4.430;2023-07-31T02:09:45;21.30;;;6.15;;
24799;SDS011;12897;50.812;4.430;2023-07-31T02:12:13;15.55;;;6.28;;
24799;SDS011;12897;50.812;4.430;2023-07-31T02:14:41;18.87;;;6.47;;
24799;SDS011;12897;50.812;4.430;2023-07-31T02:17:08;17.20;;;6.28;;
24799;SDS011;12897;50.812;4.430;2023-07-31T02:19:36;16.82;;;6.40;;
24799;SDS011;12897;50.812;4.430;2023-07-31T02:22:03;19.98;;;7.15;;
24799;SDS011;12897;50.812;4.430;2023-07-31T02:24:31;17.32;;;6.60;;
24799;SDS011;12897;50.812;4.430;2023-07-31T02:26:59;15.50;;;5.60;;
24799;SDS011;12897;50.812;4.430;2023-07-31T02:29:26;16.05;;;6.05;;
24799;SDS011;12897;50.812;4.430;2023-07-31T02:31:54;11.35;;;5.40;;
24799;SDS011;12897;50.812;4.430;2023-07-31T02:34:21;15.58;;;5.80;;
24799;SDS011;12897;50.812;4.430;2023-07-31T02:36:50;14.30;;;5.65;;
24799;SDS011;12897;50.812;4.430;2023-07-31T02:39:17;11.55;;;5.40;;
24799;SDS011;12897;50.812;4.430;2023-07-31T02:41:45;17.07;;;5.20;;
24799;SDS011;12897;50.812;4.430;2023-07-31T02:44:12;13.13;;;5.72;;
24799;SDS011;12897;50.812;4.430;2023-07-31T02:46:40;15.43;;;5.83;;
24799;SDS011;12897;50.812;4.430;2023-07-31T02:49:07;19.07;;;6.03;;
24799;SDS011;12897;50.812;4.430;2023-07-31T02:51:35;12.55;;;5.22;;
24799;SDS011;12897;50.812;4.430;2023-07-31T02:54:02;11.73;;;4.90;;
24799;SDS011;12897;50.812;4.430;2023-07-31T02:56:30;8.80;;;4.83;;
24799;SDS011;12897;50.812;4.430;2023-07-31T02:58:57;10.45;;;4.80;;
24799;SDS011;12897;50.812;4.430;2023-07-31T03:01:25;17.98;;;5.40;;
24799;SDS011;12897;50.812;4.430;2023-07-31T03:03:52;12.07;;;4.87;;
24799;SDS011;12897;50.812;4.430;2023-07-31T03:06:20;12.90;;;4.80;;
24799;SDS011;12897;50.812;4.430;2023-07-31T03:08:48;11.65;;;5.03;;
24799;SDS011;12897;50.812;4.430;2023-07-31T03:11:15;12.53;;;4.58;;
24799;SDS011;12897;50.812;4.430;2023-07-31T03:13:43;12.53;;;4.80;;
24799;SDS011;12897;50.812;4.430;2023-07-31T03:16:11;15.95;;;5.75;;
24799;SDS011;12897;50.812;4.430;2023-07-31T03:18:38;12.25;;;5.17;;
24799;SDS011;12897;50.812;4.430;2023-07-31T03:21:06;12.20;;;4.78;;
24799;SDS011;12897;50.812;4.430;2023-07-31T03:23:33;11.40;;;5.20;;
24799;SDS011;12897;50.812;4.430;2023-07-31T03:26:02;12.78;;;5.00;;
24799;SDS011;12897;50.812;4.430;2023-07-31T03:30:57;13.15;;;5.00;;
24799;SDS011;12897;50.812;4.430;2023-07-31T03:33:25;12.05;;;5.37;;
24799;SDS011;12897;50.812;4.430;2023-07-31T03:35:53;15.38;;;5.50;;
24799;SDS011;12897;50.812;4.430;2023-07-31T03:38:20;16.07;;;5.47;;
24799;SDS011;12897;50.812;4.430;2023-07-31T03:40:48;15.00;;;5.55;;
24799;SDS011;12897;50.812;4.430;2023-07-31T03:43:15;15.53;;;5.40;;
24799;SDS011;12897;50.812;4.430;2023-07-31T03:45:44;15.75;;;5.90;;
24799;SDS011;12897;50.812;4.430;2023-07-31T03:48:12;14.15;;;5.97;;
24799;SDS011;12897;50.812;4.430;2023-07-31T03:50:40;12.15;;;5.12;;
24799;SDS011;12897;50.812;4.430;2023-07-31T03:53:08;12.80;;;5.90;;
24799;SDS011;12897;50.812;4.430;2023-07-31T03:55:35;11.38;;;5.30;;
24799;SDS011;12897;50.812;4.430;2023-07-31T03:58:04;10.93;;;5.28;;
24799;SDS011;12897;50.812;4.430;2023-07-31T04:00:32;12.90;;;5.50;;
24799;SDS011;12897;50.812;4.430;2023-07-31T04:02:59;15.95;;;5.80;;
24799;SDS011;12897;50.812;4.430;2023-07-31T04:05:27;12.82;;;5.33;;
24799;SDS011;12897;50.812;4.430;2023-07-31T04:07:56;13.60;;;5.60;;
24799;SDS011;12897;50.812;4.430;2023-07-31T04:10:23;10.72;;;5.30;;
24799;SDS011;12897;50.812;4.430;2023-07-31T04:12:52;13.30;;;5.50;;
24799;SDS011;12897;50.812;4.430;2023-07-31T04:15:20;12.68;;;5.65;;
24799;SDS011;12897;50.812;4.430;2023-07-31T04:17:47;12.40;;;5.17;;
24799;SDS011;12897;50.812;4.430;2023-07-31T04:20:17;11.75;;;5.30;;
24799;SDS011;12897;50.812;4.430;2023-07-31T04:22:44;13.58;;;5.10;;
24799;SDS011;12897;50.812;4.430;2023-07-31T04:25:12;12.55;;;4.95;;
24799;SDS011;12897;50.812;4.430;2023-07-31T04:27:39;13.10;;;4.97;;
24799;SDS011;12897;50.812;4.430;2023-07-31T04:30:08;15.63;;;4.95;;
24799;SDS011;12897;50.812;4.430;2023-07-31T04:32:36;12.28;;;5.47;;
24799;SDS011;12897;50.812;4.430;2023-07-31T04:35:04;10.78;;;4.72;;
24799;SDS011;12897;50.812;4.430;2023-07-31T04:37:32;12.33;;;4.80;;
24799;SDS011;12897;50.812;4.430;2023-07-31T04:39:59;12.73;;;5.20;;
24799;SDS011;12897;50.812;4.430;2023-07-31T04:42:27;11.65;;;5.00;;
24799;SDS011;12897;50.812;4.430;2023-07-31T04:44:54;13.53;;;5.30;;
24799;SDS011;12897;50.812;4.430;2023-07-31T04:47:22;13.90;;;5.12;;
24799;SDS011;12897;50.812;4.430;2023-07-31T04:49:51;14.03;;;4.90;;
24799;SDS011;12897;50.812;4.430;2023-07-31T04:52:18;14.73;;;4.83;;
24799;SDS011;12897;50.812;4.430;2023-07-31T04:57:30;8.65;;;4.87;;
24799;SDS011;12897;50.812;4.430;2023-07-31T05:00:02;12.10;;;4.83;;
24799;SDS011;12897;50.812;4.430;2023-07-31T05:02:30;13.65;;;4.60;;
24799;SDS011;12897;50.812;4.430;2023-07-31T05:04:57;12.88;;;4.92;;
24799;SDS011;12897;50.812;4.430;2023-07-31T05:07:26;9.90;;;5.12;;
24799;SDS011;12897;50.812;4.430;2023-07-31T05:09:53;16.23;;;6.47;;
24799;SDS011;12897;50.812;4.430;2023-07-31T05:12:21;11.75;;;5.20;;
24799;SDS011;12897;50.812;4.430;2023-07-31T05:14:48;9.88;;;5.33;;
24799;SDS011;12897;50.812;4.430;2023-07-31T05:17:16;15.83;;;7.95;;
24799;SDS011;12897;50.812;4.430;2023-07-31T05:19:43;14.50;;;6.05;;
24799;SDS011;12897;50.812;4.430;2023-07-31T05:22:11;12.73;;;5.20;;
24799;SDS011;12897;50.812;4.430;2023-07-31T05:24:38;12.10;;;5.08;;
24799;SDS011;12897;50.812;4.430;2023-07-31T05:27:06;13.35;;;5.67;;
24799;SDS011;12897;50.812;4.430;2023-07-31T05:29:35;12.03;;;5.80;;
24799;SDS011;12897;50.812;4.430;2023-07-31T05:32:03;17.48;;;5.80;;
24799;SDS011;12897;50.812;4.430;2023-07-31T05:34:30;18.65;;;6.72;;
24799;SDS011;12897;50.812;4.430;2023-07-31T05:36:58;14.25;;;5.65;;
24799;SDS011;12897;50.812;4.430;2023-07-31T05:39:26;12.55;;;5.37;;
24799;SDS011;12897;50.812;4.430;2023-07-31T05:41:53;17.45;;;6.03;;
24799;SDS011;12897;50.812;4.430;2023-07-31T05:44:21;16.15;;;5.70;;
24799;SDS011;12897;50.812;4.430;2023-07-31T05:46:50;14.25;;;5.10;;
24799;SDS011;12897;50.812;4.430;2023-07-31T05:49:18;19.00;;;5.80;;
24799;SDS011;12897;50.812;4.430;2023-07-31T05:51:47;14.07;;;5.33;;
24799;SDS011;12897;50.812;4.430;2023-07-31T05:54:14;14.33;;;5.22;;
24799;SDS011;12897;50.812;4.430;2023-07-31T05:56:43;16.25;;;5.58;;
24799;SDS011;12897;50.812;4.430;2023-07-31T05:59:11;14.58;;;5.58;;
24799;SDS011;12897;50.812;4.430;2023-07-31T06:01:39;10.38;;;5.05;;
24799;SDS011;12897;50.812;4.430;2023-07-31T06:04:09;17.35;;;6.50;;
24799;SDS011;12897;50.812;4.430;2023-07-31T06:06:37;11.87;;;5.10;;
24799;SDS011;12897;50.812;4.430;2023-07-31T06:09:04;11.12;;;4.55;;
24799;SDS011;12897;50.812;4.430;2023-07-31T06:11:32;16.70;;;5.33;;
24799;SDS011;12897;50.812;4.430;2023-07-31T06:14:00;16.02;;;5.80;;
24799;SDS011;12897;50.812;4.430;2023-07-31T06:16:27;17.85;;;5.03;;
24799;SDS011;12897;50.812;4.430;2023-07-31T06:18:55;15.25;;;5.33;;
24799;SDS011;12897;50.812;4.430;2023-07-31T06:21:22;13.98;;;5.55;;
24799;SDS011;12897;50.812;4.430;2023-07-31T06:23:50;11.65;;;4.97;;
24799;SDS011;12897;50.812;4.430;2023-07-31T06:26:17;14.47;;;5.22;;
24799;SDS011;12897;50.812;4.430;2023-07-31T06:28:45;14.23;;;5.53;;
24799;SDS011;12897;50.812;4.430;2023-07-31T06:31:13;13.62;;;5.60;;
24799;SDS011;12897;50.812;4.430;2023-07-31T06:33:40;14.47;;;5.47;;
24799;SDS011;12897;50.812;4.430;2023-07-31T06:36:08;11.68;;;5.70;;
24799;SDS011;12897;50.812;4.430;2023-07-31T06:38:35;14.78;;;5.17;;
24799;SDS011;12897;50.812;4.430;2023-07-31T06:41:03;14.10;;;4.67;;
24799;SDS011;12897;50.812;4.430;2023-07-31T06:43:32;12.93;;;5.10;;
24799;SDS011;12897;50.812;4.430;2023-07-31T06:46:04;13.18;;;4.75;;
24799;SDS011;12897;50.812;4.430;2023-07-31T06:48:34;13.70;;;4.90;;
24799;SDS011;12897;50.812;4.430;2023-07-31T06:51:03;18.25;;;4.65;;
24799;SDS011;12897;50.812;4.430;2023-07-31T06:53:30;15.95;;;4.95;;
24799;SDS011;12897;50.812;4.430;2023-07-31T06:55:58;12.70;;;4.47;;
24799;SDS011;12897;50.812;4.430;2023-07-31T06:58:25;14.23;;;4.80;;
24799;SDS011;12897;50.812;4.430;2023-07-31T07:00:53;13.40;;;5.10;;
24799;SDS011;12897;50.812;4.430;2023-07-31T07:03:20;13.83;;;4.75;;
24799;SDS011;12897;50.812;4.430;2023-07-31T07:05:48;11.85;;;4.25;;
24799;SDS011;12897;50.812;4.430;2023-07-31T07:08:16;9.25;;;3.90;;
24799;SDS011;12897;50.812;4.430;2023-07-31T07:10:43;11.00;;;3.95;;
24799;SDS011;12897;50.812;4.430;2023-07-31T07:13:11;11.53;;;4.28;;
24799;SDS011;12897;50.812;4.430;2023-07-31T07:15:40;11.40;;;4.58;;
24799;SDS011;12897;50.812;4.430;2023-07-31T07:18:07;10.20;;;3.70;;
24799;SDS011;12897;50.812;4.430;2023-07-31T07:20:36;11.33;;;3.72;;
24799;SDS011;12897;50.812;4.430;2023-07-31T07:23:03;11.53;;;3.90;;
24799;SDS011;12897;50.812;4.430;2023-07-31T07:25:31;12.78;;;4.35;;
24799;SDS011;12897;50.812;4.430;2023-07-31T07:27:58;9.25;;;4.42;;
24799;SDS011;12897;50.812;4.430;2023-07-31T07:30:26;9.38;;;4.08;;
24799;SDS011;12897;50.812;4.430;2023-07-31T07:32:54;9.60;;;4.22;;
24799;SDS011;12897;50.812;4.430;2023-07-31T07:35:22;7.37;;;3.98;;
24799;SDS011;12897;50.812;4.430;2023-07-31T07:37:50;13.72;;;3.95;;
24799;SDS011;12897;50.812;4.430;2023-07-31T07:40:17;13.18;;;4.62;;
24799;SDS011;12897;50.812;4.430;2023-07-31T07:42:45;9.33;;;4.20;;
24799;SDS011;12897;50.812;4.430;2023-07-31T07:45:12;9.48;;;3.92;;
24799;SDS011;12897;50.812;4.430;2023-07-31T07:47:41;15.63;;;4.45;;
24799;SDS011;12897;50.812;4.430;2023-07-31T07:50:09;11.68;;;3.70;;
24799;SDS011;12897;50.812;4.430;2023-07-31T07:52:36;10.80;;;3.95;;
24799;SDS011;12897;50.812;4.430;2023-07-31T07:55:04;11.78;;;4.12;;
24799;SDS011;12897;50.812;4.430;2023-07-31T07:57:32;10.40;;;4.30;;
24799;SDS011;12897;50.812;4.430;2023-07-31T07:59:59;11.55;;;4.00;;
24799;SDS011;12897;50.812;4.430;2023-07-31T08:02:27;14.90;;;3.87;;
24799;SDS011;12897;50.812;4.430;2023-07-31T08:04:55;10.28;;;4.03;;
24799;SDS011;12897;50.812;4.430;2023-07-31T08:07:23;7.15;;;3.50;;
24799;SDS011;12897;50.812;4.430;2023-07-31T08:09:51;10.00;;;4.28;;
24799;SDS011;12897;50.812;4.430;2023-07-31T08:12:19;10.23;;;3.83;;
24799;SDS011;12897;50.812;4.430;2023-07-31T08:14:49;9.40;;;3.45;;
24799;SDS011;12897;50.812;4.430;2023-07-31T08:17:17;8.27;;;3.50;;
24799;SDS011;12897;50.812;4.430;2023-07-31T08:19:45;8.45;;;3.45;;
24799;SDS011;12897;50.812;4.430;2023-07-31T08:22:12;8.60;;;3.77;;
24799;SDS011;12897;50.812;4.430;2023-07-31T08:24:42;11.10;;;4.37;;
24799;SDS011;12897;50.812;4.430;2023-07-31T08:27:10;12.45;;;3.67;;
24799;SDS011;12897;50.812;4.430;2023-07-31T08:29:37;9.30;;;3.83;;
24799;SDS011;12897;50.812;4.430;2023-07-31T08:32:05;9.75;;;3.87;;
24799;SDS011;12897;50.812;4.430;2023-07-31T08:34:33;11.83;;;4.22;;
24799;SDS011;12897;50.812;4.430;2023-07-31T08:37:00;15.68;;;3.67;;
24799;SDS011;12897;50.812;4.430;2023-07-31T08:39:28;8.18;;;3.58;;
24799;SDS011;12897;50.812;4.430;2023-07-31T08:41:58;11.18;;;3.90;;
24799;SDS011;12897;50.812;4.430;2023-07-31T08:44:26;10.03;;;3.90;;
24799;SDS011;12897;50.812;4.430;2023-07-31T08:46:56;14.63;;;4.40;;
24799;SDS011;12897;50.812;4.430;2023-07-31T08:49:23;10.58;;;4.10;;
24799;SDS011;12897;50.812;4.430;2023-07-31T08:51:52;10.48;;;3.90;;
24799;SDS011;12897;50.812;4.430;2023-07-31T08:54:21;12.47;;;4.20;;
24799;SDS011;12897;50.812;4.430;2023-07-31T08:56:49;8.23;;;3.90;;
24799;SDS011;12897;50.812;4.430;2023-07-31T09:01:48;13.77;;;5.23;;
24799;SDS011;12897;50.812;4.430;2023-07-31T09:04:18;12.25;;;4.35;;
24799;SDS011;12897;50.812;4.430;2023-07-31T09:06:47;12.73;;;3.83;;
24799;SDS011;12897;50.812;4.430;2023-07-31T09:09:15;9.23;;;4.22;;
24799;SDS011;12897;50.812;4.430;2023-07-31T09:11:47;11.60;;;4.28;;
24799;SDS011;12897;50.812;4.430;2023-07-31T09:14:17;8.18;;;4.12;;
24799;SDS011;12897;50.812;4.430;2023-07-31T09:16:55;10.43;;;4.10;;
24799;SDS011;12897;50.812;4.430;2023-07-31T09:19:32;18.30;;;4.92;;
24799;SDS011;12897;50.812;4.430;2023-07-31T09:21:56;10.70;;;4.15;;
24799;SDS011;12897;50.812;4.430;2023-07-31T09:24:27;13.13;;;4.30;;
24799;SDS011;12897;50.812;4.430;2023-07-31T09:26:57;13.32;;;4.60;;
24799;SDS011;12897;50.812;4.430;2023-07-31T09:29:26;11.03;;;4.97;;
24799;SDS011;12897;50.812;4.430;2023-07-31T09:31:55;12.60;;;4.70;;
24799;SDS011;12897;50.812;4.430;2023-07-31T09:34:30;17.10;;;4.30;;
24799;SDS011;12897;50.812;4.430;2023-07-31T09:37:01;11.75;;;4.90;;
24799;SDS011;12897;50.812;4.430;2023-07-31T09:39:29;9.25;;;4.12;;
24799;SDS011;12897;50.812;4.430;2023-07-31T09:41:57;13.65;;;4.80;;
24799;SDS011;12897;50.812;4.430;2023-07-31T09:44:40;14.35;;;5.03;;
24799;SDS011;12897;50.812;4.430;2023-07-31T09:47:20;10.80;;;4.75;;
24799;SDS011;12897;50.812;4.430;2023-07-31T09:49:52;11.22;;;4.70;;
24799;SDS011;12897;50.812;4.430;2023-07-31T09:52:20;9.93;;;4.53;;
24799;SDS011;12897;50.812;4.430;2023-07-31T09:54:48;13.78;;;5.08;;
24799;SDS011;12897;50.812;4.430;2023-07-31T09:57:15;13.03;;;5.08;;
24799;SDS011;12897;50.812;4.430;2023-07-31T09:59:46;10.30;;;4.62;;
24799;SDS011;12897;50.812;4.430;2023-07-31T10:02:24;9.08;;;4.65;;
24799;SDS011;12897;50.812;4.430;2023-07-31T10:04:53;12.07;;;5.05;;
24799;SDS011;12897;50.812;4.430;2023-07-31T10:07:27;13.65;;;5.00;;
24799;SDS011;12897;50.812;4.430;2023-07-31T10:09:57;13.55;;;5.78;;
24799;SDS011;12897;50.812;4.430;2023-07-31T10:12:26;12.70;;;5.12;;
24799;SDS011;12897;50.812;4.430;2023-07-31T10:14:56;15.98;;;6.25;;
24799;SDS011;12897;50.812;4.430;2023-07-31T10:17:24;12.98;;;5.75;;
24799;SDS011;12897;50.812;4.430;2023-07-31T10:19:57;13.40;;;5.70;;
24799;SDS011;12897;50.812;4.430;2023-07-31T10:22:22;13.85;;;6.25;;
24799;SDS011;12897;50.812;4.430;2023-07-31T10:24:51;12.82;;;6.10;;
24799;SDS011;12897;50.812;4.430;2023-07-31T10:27:21;14.65;;;5.75;;
24799;SDS011;12897;50.812;4.430;2023-07-31T10:29:48;12.50;;;5.42;;
24799;SDS011;12897;50.812;4.430;2023-07-31T10:32:17;10.68;;;5.28;;
24799;SDS011;12897;50.812;4.430;2023-07-31T10:34:45;13.50;;;5.23;;
24799;SDS011;12897;50.812;4.430;2023-07-31T10:37:29;17.60;;;6.40;;
24799;SDS011;12897;50.812;4.430;2023-07-31T10:40:03;14.00;;;5.78;;
24799;SDS011;12897;50.812;4.430;2023-07-31T10:42:44;14.43;;;6.05;;
24799;SDS011;12897;50.812;4.430;2023-07-31T10:50:38;13.90;;;5.47;;
24799;SDS011;12897;50.812;4.430;2023-07-31T10:53:07;14.68;;;5.87;;
24799;SDS011;12897;50.812;4.430;2023-07-31T10:55:41;15.45;;;5.47;;
24799;SDS011;12897;50.812;4.430;2023-07-31T10:58:13;11.53;;;5.35;;
24799;SDS011;12897;50.812;4.430;2023-07-31T11:00:43;14.53;;;5.30;;
24799;SDS011;12897;50.812;4.430;2023-07-31T11:03:13;13.58;;;5.92;;
24799;SDS011;12897;50.812;4.430;2023-07-31T11:08:17;14.90;;;5.55;;
24799;SDS011;12897;50.812;4.430;2023-07-31T11:10:47;15.78;;;6.22;;
24799;SDS011;12897;50.812;4.430;2023-07-31T11:13:16;13.40;;;5.50;;
24799;SDS011;12897;50.812;4.430;2023-07-31T11:15:44;17.30;;;5.75;;
24799;SDS011;12897;50.812;4.430;2023-07-31T11:18:12;19.73;;;5.53;;
24799;SDS011;12897;50.812;4.430;2023-07-31T11:20:39;15.13;;;5.17;;
24799;SDS011;12897;50.812;4.430;2023-07-31T11:23:08;14.83;;;5.53;;
24799;SDS011;12897;50.812;4.430;2023-07-31T11:25:37;14.58;;;5.28;;
24799;SDS011;12897;50.812;4.430;2023-07-31T11:28:08;12.60;;;5.75;;
24799;SDS011;12897;50.812;4.430;2023-07-31T11:30:37;13.15;;;5.25;;
24799;SDS011;12897;50.812;4.430;2023-07-31T11:33:06;14.35;;;6.03;;
24799;SDS011;12897;50.812;4.430;2023-07-31T11:38:05;15.28;;;5.17;;
24799;SDS011;12897;50.812;4.430;2023-07-31T11:40:44;11.50;;;5.42;;
24799;SDS011;12897;50.812;4.430;2023-07-31T11:43:10;8.53;;;4.80;;
24799;SDS011;12897;50.812;4.430;2023-07-31T11:45:39;13.48;;;5.42;;
24799;SDS011;12897;50.812;4.430;2023-07-31T11:48:07;10.55;;;5.42;;
24799;SDS011;12897;50.812;4.430;2023-07-31T11:50:34;13.88;;;5.40;;
24799;SDS011;12897;50.812;4.430;2023-07-31T11:53:04;10.90;;;4.72;;
24799;SDS011;12897;50.812;4.430;2023-07-31T11:55:33;14.83;;;5.08;;
24799;SDS011;12897;50.812;4.430;2023-07-31T11:58:01;15.58;;;4.95;;
24799;SDS011;12897;50.812;4.430;2023-07-31T12:00:29;13.95;;;5.35;;
24799;SDS011;12897;50.812;4.430;2023-07-31T12:02:57;13.40;;;5.55;;
24799;SDS011;12897;50.812;4.430;2023-07-31T12:05:25;16.57;;;5.60;;
24799;SDS011;12897;50.812;4.430;2023-07-31T12:07:53;16.15;;;5.37;;
24799;SDS011;12897;50.812;4.430;2023-07-31T12:10:28;14.83;;;5.67;;
24799;SDS011;12897;50.812;4.430;2023-07-31T12:12:57;13.70;;;5.10;;
24799;SDS011;12897;50.812;4.430;2023-07-31T12:15:29;13.95;;;5.10;;
24799;SDS011;12897;50.812;4.430;2023-07-31T12:17:59;15.95;;;5.10;;
24799;SDS011;12897;50.812;4.430;2023-07-31T12:20:26;14.40;;;5.17;;
24799;SDS011;12897;50.812;4.430;2023-07-31T12:22:56;14.35;;;5.05;;
24799;SDS011;12897;50.812;4.430;2023-07-31T12:25:29;14.45;;;4.87;;
24799;SDS011;12897;50.812;4.430;2023-07-31T12:27:57;11.75;;;5.53;;
24799;SDS011;12897;50.812;4.430;2023-07-31T12:30:27;10.65;;;5.30;;
24799;SDS011;12897;50.812;4.430;2023-07-31T12:32:56;11.57;;;5.05;;
24799;SDS011;12897;50.812;4.430;2023-07-31T12:35:23;10.40;;;4.95;;
24799;SDS011;12897;50.812;4.430;2023-07-31T12:37:51;11.45;;;5.35;;
24799;SDS011;12897;50.812;4.430;2023-07-31T12:40:18;12.70;;;4.83;;
24799;SDS011;12897;50.812;4.430;2023-07-31T12:42:46;13.85;;;5.42;;
24799;SDS011;12897;50.812;4.430;2023-07-31T12:45:16;12.68;;;5.42;;
24799;SDS011;12897;50.812;4.430;2023-07-31T12:47:43;14.65;;;5.42;;
24799;SDS011;12897;50.812;4.430;2023-07-31T12:50:11;15.18;;;5.97;;
24799;SDS011;12897;50.812;4.430;2023-07-31T12:52:41;11.83;;;5.33;;
24799;SDS011;12897;50.812;4.430;2023-07-31T12:55:11;15.53;;;5.40;;
24799;SDS011;12897;50.812;4.430;2023-07-31T12:57:39;19.40;;;5.85;;
24799;SDS011;12897;50.812;4.430;2023-07-31T13:00:10;12.80;;;5.50;;
24799;SDS011;12897;50.812;4.430;2023-07-31T13:02:38;11.80;;;5.60;;
24799;SDS011;12897;50.812;4.430;2023-07-31T13:05:06;18.40;;;5.78;;
24799;SDS011;12897;50.812;4.430;2023-07-31T13:07:34;14.43;;;4.87;;
24799;SDS011;12897;50.812;4.430;2023-07-31T13:10:01;11.15;;;5.00;;
24799;SDS011;12897;50.812;4.430;2023-07-31T13:12:29;11.12;;;4.75;;
24799;SDS011;12897;50.812;4.430;2023-07-31T13:14:57;11.57;;;4.67;;
24799;SDS011;12897;50.812;4.430;2023-07-31T13:17:24;11.60;;;4.40;;
24799;SDS011;12897;50.812;4.430;2023-07-31T13:19:52;11.55;;;4.45;;
24799;SDS011;12897;50.812;4.430;2023-07-31T13:22:20;13.70;;;5.35;;
24799;SDS011;12897;50.812;4.430;2023-07-31T13:24:47;11.35;;;5.00;;
24799;SDS011;12897;50.812;4.430;2023-07-31T13:27:16;15.53;;;5.30;;
24799;SDS011;12897;50.812;4.430;2023-07-31T13:29:45;12.80;;;4.80;;
24799;SDS011;12897;50.812;4.430;2023-07-31T13:32:12;10.40;;;5.30;;
24799;SDS011;12897;50.812;4.430;2023-07-31T13:34:40;15.40;;;4.95;;
24799;SDS011;12897;50.812;4.430;2023-07-31T13:37:07;9.45;;;4.25;;
24799;SDS011;12897;50.812;4.430;2023-07-31T13:39:35;9.08;;;4.37;;
24799;SDS011;12897;50.812;4.430;2023-07-31T13:42:03;10.65;;;4.40;;
24799;SDS011;12897;50.812;4.430;2023-07-31T13:47:02;11.48;;;3.95;;
24799;SDS011;12897;50.812;4.430;2023-07-31T13:49:30;13.48;;;4.45;;
24799;SDS011;12897;50.812;4.430;2023-07-31T13:51:57;14.78;;;4.50;;
24799;SDS011;12897;50.812;4.430;2023-07-31T13:54:25;12.35;;;4.22;;
24799;SDS011;12897;50.812;4.430;2023-07-31T13:56:52;8.78;;;3.90;;
24799;SDS011;12897;50.812;4.430;2023-07-31T13:59:20;11.63;;;4.12;;
24799;SDS011;12897;50.812;4.430;2023-07-31T14:01:48;9.10;;;3.62;;
24799;SDS011;12897;50.812;4.430;2023-07-31T14:04:17;8.65;;;3.45;;
24799;SDS011;12897;50.812;4.430;2023-07-31T14:06:45;10.10;;;4.10;;
24799;SDS011;12897;50.812;4.430;2023-07-31T14:09:14;7.47;;;3.25;;
24799;SDS011;12897;50.812;4.430;2023-07-31T14:11:41;7.67;;;4.35;;
24799;SDS011;12897;50.812;4.430;2023-07-31T14:14:09;8.15;;;3.80;;
24799;SDS011;12897;50.812;4.430;2023-07-31T14:16:37;9.08;;;3.65;;
24799;SDS011;12897;50.812;4.430;2023-07-31T14:19:05;8.00;;;3.98;;
24799;SDS011;12897;50.812;4.430;2023-07-31T14:21:34;10.30;;;4.53;;
24799;SDS011;12897;50.812;4.430;2023-07-31T14:24:01;9.55;;;4.67;;
24799;SDS011;12897;50.812;4.430;2023-07-31T14:26:29;9.40;;;4.08;;
24799;SDS011;12897;50.812;4.430;2023-07-31T14:28:57;9.30;;;3.95;;
24799;SDS011;12897;50.812;4.430;2023-07-31T14:31:24;8.60;;;4.05;;
24799;SDS011;12897;50.812;4.430;2023-07-31T14:33:53;13.00;;;4.08;;
24799;SDS011;12897;50.812;4.430;2023-07-31T14:36:22;13.20;;;4.55;;
24799;SDS011;12897;50.812;4.430;2023-07-31T14:38:49;7.87;;;4.00;;
24799;SDS011;12897;50.812;4.430;2023-07-31T14:41:19;7.22;;;3.58;;
24799;SDS011;12897;50.812;4.430;2023-07-31T14:43:46;7.72;;;3.55;;
24799;SDS011;12897;50.812;4.430;2023-07-31T14:46:14;7.05;;;3.10;;
24799;SDS011;12897;50.812;4.430;2023-07-31T14:48:42;5.03;;;2.85;;
24799;SDS011;12897;50.812;4.430;2023-07-31T14:51:10;5.95;;;2.90;;
24799;SDS011;12897;50.812;4.430;2023-07-31T14:53:38;6.50;;;3.17;;
24799;SDS011;12897;50.812;4.430;2023-07-31T14:56:07;6.80;;;2.87;;
24799;SDS011;12897;50.812;4.430;2023-07-31T14:58:40;9.30;;;3.40;;
24799;SDS011;12897;50.812;4.430;2023-07-31T15:01:07;13.05;;;3.60;;
24799;SDS011;12897;50.812;4.430;2023-07-31T15:03:35;4.80;;;2.62;;
24799;SDS011;12897;50.812;4.430;2023-07-31T15:06:02;8.43;;;2.95;;
24799;SDS011;12897;50.812;4.430;2023-07-31T15:08:33;4.60;;;2.52;;
24799;SDS011;12897;50.812;4.430;2023-07-31T15:13:29;5.25;;;2.87;;
24799;SDS011;12897;50.812;4.430;2023-07-31T15:15:59;5.00;;;2.67;;
24799;SDS011;12897;50.812;4.430;2023-07-31T15:18:28;3.92;;;2.40;;
24799;SDS011;12897;50.812;4.430;2023-07-31T15:20:57;4.20;;;1.98;;
24799;SDS011;12897;50.812;4.430;2023-07-31T15:23:24;4.22;;;2.67;;
24799;SDS011;12897;50.812;4.430;2023-07-31T15:25:52;3.17;;;2.08;;
24799;SDS011;12897;50.812;4.430;2023-07-31T15:28:20;4.37;;;1.67;;
24799;SDS011;12897;50.812;4.430;2023-07-31T15:30:47;3.60;;;1.70;;
24799;SDS011;12897;50.812;4.430;2023-07-31T15:33:16;3.15;;;2.00;;
24799;SDS011;12897;50.812;4.430;2023-07-31T15:35:44;3.95;;;1.80;;
24799;SDS011;12897;50.812;4.430;2023-07-31T15:38:12;3.55;;;1.62;;
24799;SDS011;12897;50.812;4.430;2023-07-31T15:40:40;3.45;;;1.47;;
24799;SDS011;12897;50.812;4.430;2023-07-31T15:43:07;2.15;;;1.60;;
24799;SDS011;12897;50.812;4.430;2023-07-31T15:45:35;3.67;;;1.50;;
24799;SDS011;12897;50.812;4.430;2023-07-31T15:48:02;2.70;;;1.45;;
24799;SDS011;12897;50.812;4.430;2023-07-31T15:50:30;3.60;;;2.22;;
24799;SDS011;12897;50.812;4.430;2023-07-31T15:52:59;3.50;;;1.95;;
24799;SDS011;12897;50.812;4.430;2023-07-31T15:55:26;2.85;;;1.42;;